Terminal Aerodrome Forecast
Issued by NWS

Home | Current Version | Previous Version | Text Only | Print | Product List | Glossary On
Versions: 1 2 3 4 5 6 7 8 9 10 11 12 13 14 15 16 17 18 19
000
FTUS45 KTFX 030100 AAA
TAFLWT
TAF AMD
KLWT 030100Z 0301/0324 34012KT P6SM SCT015 BKN025
      TEMPO 0301/0303 3SM -SN BLSN BKN015
     FM030300 35010KT P6SM VCSH SCT025 BKN040
     FM031500 27010KT P6SM SCT040 BKN080=

USA.gov is the U.S. government's official web portal to all federal, state and local government web resources and services.